createdAt,value
2022-08-21T00:02:25.975Z,100.00
2022-08-21T00:17:27.966Z,100.00
2022-08-21T00:32:31.317Z,100.00
2022-08-21T00:47:33.404Z,100.00
2022-08-21T01:02:35.648Z,100.00
2022-08-21T01:17:38.490Z,100.00
2022-08-21T01:32:40.935Z,100.00
2022-08-21T01:47:44.497Z,100.00
2022-08-21T02:02:46.608Z,100.00
2022-08-21T02:17:51.411Z,100.00
2022-08-21T02:32:53.287Z,100.00
2022-08-21T02:48:01.604Z,100.00
2022-08-21T03:03:06.500Z,100.00
2022-08-21T03:18:09.952Z,100.00
2022-08-21T03:33:13.170Z,100.00
2022-08-21T03:48:17.059Z,100.00
2022-08-21T04:03:20.977Z,100.00
2022-08-21T04:18:23.410Z,100.00
2022-08-21T04:33:25.748Z,100.00
2022-08-21T04:48:28.150Z,100.00
2022-08-21T05:03:32.609Z,100.00
2022-08-21T05:18:34.835Z,100.00
2022-08-21T05:33:36.732Z,100.00
2022-08-21T05:48:42.666Z,100.00
2022-08-21T06:03:44.565Z,100.00
2022-08-21T06:18:46.817Z,100.00
2022-08-21T06:33:49.213Z,100.00
2022-08-21T06:48:51.184Z,100.00
2022-08-21T07:03:53.407Z,100.00
2022-08-21T07:18:55.482Z,100.00
2022-08-21T07:33:57.423Z,100.00
2022-08-21T07:48:59.404Z,98.04
2022-08-21T08:04:01.360Z,93.60
2022-08-21T08:19:04.483Z,91.05
2022-08-21T08:34:06.356Z,94.09
2022-08-21T08:49:23.674Z,82.95
2022-08-21T09:04:29.878Z,91.75
2022-08-21T09:19:54.690Z,68.68
2022-08-21T09:35:18.503Z,62.38
2022-08-21T09:50:28.576Z,62.29
2022-08-21T10:05:32.485Z,60.58
2022-08-21T10:20:45.020Z,56.52
2022-08-21T10:36:21.506Z,52.17
2022-08-21T10:51:53.666Z,49.64
2022-08-21T11:07:17.786Z,48.84
2022-08-21T11:22:29.840Z,50.29
2022-08-21T11:37:49.933Z,46.98
2022-08-21T11:53:17.807Z,44.74
2022-08-21T12:08:40.323Z,46.82
2022-08-21T12:23:50.127Z,53.46
2022-08-21T12:38:53.819Z,57.67
2022-08-21T12:54:00.665Z,58.40
2022-08-21T13:09:08.784Z,55.58
2022-08-21T13:24:42.727Z,56.91
2022-08-21T13:39:53.185Z,55.86
2022-08-21T13:55:11.090Z,57.71
2022-08-21T14:10:20.619Z,55.37
2022-08-21T14:25:25.662Z,58.58
2022-08-21T14:40:28.091Z,59.55
2022-08-21T14:55:30.123Z,59.87
2022-08-21T15:10:34.706Z,56.90
2022-08-21T15:25:41.473Z,58.36
2022-08-21T15:40:52.077Z,60.38
2022-08-21T15:55:55.204Z,56.19
2022-08-21T16:10:57.257Z,60.46
2022-08-21T16:26:00.547Z,61.21
2022-08-21T16:41:02.732Z,63.79
2022-08-21T16:56:07.937Z,65.68
2022-08-21T17:11:36.855Z,63.36
2022-08-21T17:26:40.089Z,66.64
2022-08-21T17:41:41.960Z,65.17
2022-08-21T17:56:45.143Z,70.21
2022-08-21T18:11:47.102Z,71.37
2022-08-21T18:26:50.615Z,71.39
2022-08-21T18:41:53.353Z,71.22
2022-08-21T18:56:55.434Z,71.75
2022-08-21T19:11:57.872Z,72.79
2022-08-21T19:27:00.111Z,74.26
2022-08-21T19:42:02.029Z,74.83
2022-08-21T19:57:06.988Z,73.57
2022-08-21T20:12:12.383Z,72.38
2022-08-21T20:27:22.308Z,69.87
2022-08-21T20:42:24.936Z,71.71
2022-08-21T20:57:34.660Z,57.51
2022-08-21T21:12:41.581Z,61.11
2022-08-21T21:27:49.248Z,56.11
2022-08-21T21:43:17.115Z,49.77
2022-08-21T22:14:13.504Z,50.56
2022-08-21T22:29:19.137Z,50.22
2022-08-21T22:44:27.225Z,49.39
2022-08-21T22:59:34.763Z,49.71
2022-08-21T23:14:37.097Z,49.31
2022-08-21T23:29:56.835Z,47.41
2022-08-21T23:44:58.917Z,49.34
